Terminal Aerodrome Forecast
Issued by NWS

Home | Current Version | Previous Version | Text Only | Print | Product List | Glossary Off
Versions: 1 2 3 4 5 6 7 8 9 10 11 12 13 14 15 16 17 18 19 20 21 22 23 24 25 26 27 28 29 30 31 32

000
FTUS43 KLOT 281736
TAFORD
TAF
KORD 281736Z 2818/2924 11011KT P6SM FEW050 BKN250
     FM290100 10008KT P6SM FEW050 BKN200
     FM290900 18009KT P6SM SCT050 OVC150
     FM291300 18010KT P6SM -SHRA BKN040
     FM291500 19012KT 3SM TSRA BKN030CB
     FM291900 21012G21KT P6SM BKN035=

USA.gov is the U.S. government's official web portal to all federal, state and local government web resources and services.